Landisville, NJ (08326)

10:23 AM EDT en Septiembre 23, 2014 (GMT -0400)
Ramblewood | Change Station
CLOSE
Current Station
Estación meteorológica personal
Location: Vineland, NJ
Altura: 110 ft
Estaciones meteorológicas cercanas

Alt 110 ft 39.50 °N, 75.01 °W | Updated 10 seconds ago

Despejado
Despejado
58.6 ° F
Sensación térmica 58.6 ° F
N
0.0
Viento Variable Viento desde ENE
Gusts 0.0 mph

Hoy
Alta -- | Baja -- ° F
--% Posibilidad de precipitaciones
Ayer
Alta -- | Baja -- ° F
Precip. -- pul
6:48 AM 6:55 PM
Creciente menguante, 0% visible
Presión 30.33 pul
Visibilidad 10.0 Millas
Nubes Despejado
Punto de rocío 46 ° F
Humedad 64%
Precipitaciones 0.00 pul
Espesor de la nieve No disponible.
UV 4 de una escala de 12
Polen 2.30 de una escala de 12
Ozono Buena
PM2.5 Buena
Flu Activity No disponible.
METAR KMIV 231354Z AUTO 03007KT 10SM CLR 14/06 A3033 RMK AO2 SLP270 T01440061

More Conditions Fewer Conditions

Presión 30.33 pul
Visibilidad 10.0 Millas
Nubes Despejado
Punto de rocío 46 ° F
Humedad 64%
Precipitaciones 0.00 pul
Espesor de la nieve No disponible.
UV 4 de una escala de 12
Polen 2.30 de una escala de 12
Ozono Buena
PM2.5 Buena
Flu Activity No disponible.
METAR KMIV 231354Z AUTO 03007KT 10SM CLR 14/06 A3033 RMK AO2 SLP270 T01440061

More Conditions Fewer Conditions

10-Day Weather Forecast

Almanac

Astronomía

Sep. 23, 2014 Salida Puesta
Hora real 6:48 AM EDT 6:55 PM EDT
Crepúsculo civil 6:21 AM EDT 7:22 PM EDT
Crepúsculo náutico 5:50 AM EDT 7:53 PM EDT
Crepúsculo astronómico 5:18 AM EDT 8:25 PM EDT
Luna 6:10 AM EDT 6:32 PM EDT
Horas de luz 13h 00m
Horas de luz
12h 06m
Tomorrow will be 2m 34s shorter.
Creciente menguante, 0% of the Moon is Illuminated
Hoy
Creciente menguante
Sep 24
Nueva
Oct 1
Cuarto creciente
Oct 8
Luna llena
Oct 15
Cuarto menguante

Extremos de hoy

Máximos del estado Bajos del estado

Community

WunderPhotos

Upload Photos

1,755,705 ¡fotos cargadas!

Nearby

Calidad del aire

  Calidad del aire Índice AQ Contaminante
Ayer Buena
OZONE
Ayer Buena
PM2.5
Real Buena
PM2.5
Real Buena
OZONE
Martes Buena
PM2.5
Martes Buena
OZONE
Miércoles Buena
PM2.5
Miércoles Buena
OZONE
Jueves Buena
PM2.5
Jueves Buena
OZONE

Grosos de nieve

Estación Profundido Altura
No tenemos constancia de nieve nueva.

Actividad de terremotos

Ciudad Distance Mag. Tiempo y dato
No hay informes recientes de la actividad sísmica.
Magnitud mínima muestra es 2,5.

Temperaturas de aguas costeras

Lugar Temperatura
Cape May, NJ 73.0 ° F
Lewes, DE 68.0 ° F
Ship John Shoal, NJ 71.1 ° F

Estaciones meteorológicas cercanas